CheckWX is a tool to help pilots better visualize weather data.  It is not intended as a substitute for an official pre-flight weather briefing.

02:06:37 UTC

LYUZ TAF
Uzice-ponikve
Uzice-ponikve
TAF LYUZ 182300Z 1900/1924 32007KT 9999 BKN020 TX06/1912Z TN00/1906Z

Mar-19@
00:00 UTC

Mar-19 @ 00:00 UTC

Mar-20@
00:00 UTC

Mar-20 @ 00:00 UTC

TAF LYUZ 182300Z 1900/1924 32007KT 9999 BKN020 TX06/1912Z TN00/1906Z
Wind
  • 320° at 7 KTS
Cloud Levels
  • Broken at 2,000' AGL